FW0739 Weather Reports


time (UTC)temp
C
wind
direction
speed
KPH
gust
KPH
rain 1hr
cm
rain 24hr
cm
rain mn
cm
humidity
%
barometer
mb
20200229074517 15 0.0 0.0 0.00 0.00 0.00 90 1014.2
20200229073517 15 0.0 0.0 0.00 0.00 0.00 88 1014.2
20200229072517 15 0.0 0.0 0.00 0.00 0.00 87 1014.2
20200229071517 15 0.0 0.0 0.00 0.00 0.00 87 1014.1
20200229070517 15 0.0 0.0 0.00 0.00 0.00 88 1014.0
20200229065516 15 0.0 0.0 0.00 0.00 0.00 86 1013.9
20200229064516 15 0.0 0.0 0.00 0.00 0.00 87 1013.9
20200229063516 16 0.0 0.0 0.00 0.00 0.00 86 1014.0
20200229062516 16 0.0 0.0 0.00 0.00 0.00 86 1014.1
20200229061516 16 0.0 0.0 0.00 0.00 0.00 84 1014.2
20200229060516 16 0.0 0.0 0.00 0.00 0.00 83 1014.2
20200229055516 16 0.0 1.6 0.00 0.00 0.00 84 1014.2
20200229054516 16 0.0 3.2 0.00 0.00 0.00 85 1014.2
20200229053516 16 0.0 3.2 0.00 0.00 0.00 86 1014.0
20200229052516 16 0.0 0.0 0.00 0.00 0.00 85 1014.0
20200229051522 16 0.0 1.6 0.00 0.00 0.00 85 1014.0
20200229050515 16 0.0 1.6 0.00 0.00 0.00 85 1014.0
20200229045516 17 0.0 0.0 0.00 0.00 0.00 86 1014.1
20200229044516 17 0.0 0.0 0.00 0.00 0.00 83 1014.0
20200229043517 17 0.0 0.0 0.00 0.00 0.00 84 1014.1
20200229042516 17 0.0 1.6 0.00 0.00 0.00 82 1014.1
20200229041515 17 0.0 0.0 0.00 0.00 0.00 83 1014.1
20200229040515 17 0.0 1.6 0.00 0.00 0.00 82 1014.0
20200229035517 18 0.0 3.2 0.00 0.00 0.00 81 1013.8
20200229034517 18 0.0 0.0 0.00 0.00 0.00 80 1013.9
20200229033516 18 0.0 1.6 0.00 0.00 0.00 79 1013.9
20200229032517 18 0.0 0.0 0.00 0.00 0.00 76 1014.0
20200229031518 18 0.0 0.0 0.00 0.00 0.00 75 1013.8
20200229030516 19 0.0 3.2 0.00 0.00 0.00 75 1013.8
20200229025515 20 0.0 0.0 0.00 0.00 0.00 74 1013.7
20200229024516 20 0.0 3.2 0.00 0.00 0.00 73 1013.5
20200229023517 20 0.0 3.2 0.00 0.00 0.00 70 1013.3
20200229022518 21 225 1.6 3.2 0.00 0.00 0.00 68 1013.3
20200229011517 25 270 9.7 17.7 0.00 0.00 0.00 54 1012.5
20200229010517 25 270 8.0 16.1 0.00 0.00 0.00 53 1012.5
20200229005517 26 270 6.4 16.1 0.00 0.00 0.00 52 1012.4
20200229004517 27 270 8.0 14.5 0.00 0.00 0.00 50 1012.2
20200229003517 27 270 9.7 17.7 0.00 0.00 0.00 52 1012.1
20200229002520 27 270 11.3 19.3 0.00 0.00 0.00 51 1011.9
20200229001518 27 270 12.9 22.5 0.00 0.00 0.00 50 1011.7
20200229000523 28 270 11.3 22.5 0.00 0.00 0.00 50 1011.7
20200228235518 28 270 9.7 17.7 0.00 0.00 0.00 49 1011.6
20200228234517 29 247 11.3 17.7 0.00 0.00 0.00 50 1011.5
20200228233517 29 270 9.7 19.3 0.00 0.00 0.00 49 1011.4
20200228232517 29 270 11.3 19.3 0.00 0.00 0.00 50 1011.3
20200228231517 30 270 12.9 22.5 0.00 0.00 0.00 49 1011.3
20200228230517 30 247 11.3 19.3 0.00 0.00 0.00 48 1011.2
20200228225517 30 270 9.7 19.3 0.00 0.00 0.00 47 1011.1
20200228224517 31 270 9.7 14.5 0.00 0.00 0.00 45 1011.1
20200228223517 31 270 9.7 16.1 0.00 0.00 0.00 44 1011.1
20200228222517 31 270 9.7 16.1 0.00 0.00 0.00 44 1011.2
20200228221517 31 270 9.7 19.3 0.00 0.00 0.00 43 1011.2
20200228220517 31 270 8.0 16.1 0.00 0.00 0.00 42 1011.2
20200228215517 31 270 9.7 16.1 0.00 0.00 0.00 41 1011.4
20200228214517 31 270 6.4 14.5 0.00 0.00 0.00 41 1011.5
20200228213517 31 270 8.0 14.5 0.00 0.00 0.00 41 1011.7
20200228212517 31 270 9.7 20.9 0.00 0.00 0.00 43 1011.8
20200228211517 31 270 12.9 20.9 0.00 0.00 0.00 43 1012.0
20200228210521 31 270 9.7 19.3 0.00 0.00 0.00 42 1012.0
20200228205516 31 270 9.7 19.3 0.00 0.00 0.00 43 1012.2
20200228204517 31 270 9.7 17.7 0.00 0.00 0.00 44 1012.4
20200228203516 31 247 9.7 19.3 0.00 0.00 0.00 45 1012.5
20200228202517 31 270 9.7 17.7 0.00 0.00 0.00 44 1012.7
20200228201516 31 270 9.7 17.7 0.00 0.00 0.00 45 1012.8
20200228200517 31 247 6.4 14.5 0.00 0.00 0.00 45 1013.0
20200228195517 31 292 4.8 12.9 0.00 0.00 0.00 45 1013.0
20200228194516 30 270 4.8 11.3 0.00 0.00 0.00 44 1013.2
20200228193517 30 270 4.8 12.9 0.00 0.00 0.00 44 1013.5
20200228192516 30 315 3.2 11.3 0.00 0.00 0.00 42 1013.6
20200228191521 30 112 4.8 12.9 0.00 0.00 0.00 43 1013.7
20200228190516 30 270 4.8 11.3 0.00 0.00 0.00 42 1014.0
20200228185517 30 315 3.2 8.0 0.00 0.00 0.00 41 1014.2
20200228184518 29 135 3.2 8.0 0.00 0.00 0.00 43 1014.4
20200228183516 29 270 1.6 6.4 0.00 0.00 0.00 43 1014.6
20200228182516 29 270 3.2 6.4 0.00 0.00 0.00 42 1014.6
20200228181517 28 90 1.6 4.8 0.00 0.00 0.00 43 1014.8
20200228180516 28 180 1.6 6.4 0.00 0.00 0.00 43 1015.0
20200228175517 28 135 3.2 3.2 0.00 0.00 0.00 42 1015.1
20200228174516 28 0.0 3.2 0.00 0.00 0.00 42 1015.1
20200228173516 27 90 1.6 4.8 0.00 0.00 0.00 44 1015.0
20200228172516 27 90 3.2 8.0 0.00 0.00 0.00 46 1015.2
20200228171516 26 45 1.6 6.4 0.00 0.00 0.00 52 1015.3
20200228170516 26 135 1.6 4.8 0.00 0.00 0.00 55 1015.3
20200228165517 25 0.0 3.2 0.00 0.00 0.00 57 1015.4
20200228164517 24 45 1.6 4.8 0.00 0.00 0.00 61 1015.6
20200228163517 23 22 1.6 3.2 0.00 0.00 0.00 65 1015.6
20200228162517 23 22 1.6 3.2 0.00 0.00 0.00 65 1015.6
20200228161516 22 45 1.6 6.4 0.00 0.00 0.00 66 1015.5
20200228160516 22 22 1.6 3.2 0.00 0.00 0.00 69 1015.4
20200228155516 21 0.0 3.2 0.00 0.00 0.00 73 1015.3
20200228154516 21 90 1.6 3.2 0.00 0.00 0.00 74 1015.2
20200228153516 20 0.0 3.2 0.00 0.00 0.00 77 1015.0
20200228152516 19 0.0 0.0 0.00 0.00 0.00 80 1015.1
20200228151516 18 0.0 0.0 0.00 0.00 0.00 83 1015.1
20200228150516 17 0.0 0.0 0.00 0.00 0.00 87 1014.9
20200228145516 16 0.0 0.0 0.00 0.00 0.00 87 1014.8
20200228144516 16 0.0 0.0 0.00 0.00 0.00 88 1014.7
20200228143517 15 0.0 0.0 0.00 0.00 0.00 90 1014.6
20200228142516 13 0.0 0.0 0.00 0.00 0.00 91 1014.5
20200228141516 13 0.0 0.0 0.00 0.00 0.00 92 1014.4
20200228140516 12 0.0 0.0 0.00 0.00 0.00 93 1014.2
20200228135516 12 0.0 0.0 0.00 0.00 0.00 94 1014.1
20200228134516 12 0.0 0.0 0.00 0.00 0.00 93 1013.9
20200228133516 12 0.0 0.0 0.00 0.00 0.00 92 1013.8
20200228132516 12 0.0 0.0 0.00 0.00 0.00 93 1013.8
20200228131516 12 0.0 0.0 0.00 0.00 0.00 93 1013.8
20200228130516 12 0.0 0.0 0.00 0.00 0.00 92 1013.7
20200228125516 12 0.0 0.0 0.00 0.00 0.00 92 1013.6
20200228124515 12 0.0 0.0 0.00 0.00 0.00 92 1013.5
20200228123516 12 0.0 0.0 0.00 0.00 0.00 93 1013.4
20200228122516 12 0.0 0.0 0.00 0.00 0.00 92 1013.4
20200228121516 12 0.0 0.0 0.00 0.00 0.00 92 1013.4
20200228120516 12 0.0 0.0 0.00 0.00 0.00 92 1013.4
20200228115516 12 0.0 0.0 0.00 0.00 0.00 92 1013.3
20200228114516 12 0.0 0.0 0.00 0.00 0.00 93 1013.1
20200228113517 12 0.0 0.0 0.00 0.00 0.00 92 1013.0
20200228112515 12 0.0 0.0 0.00 0.00 0.00 91 1012.9
20200228111515 13 0.0 0.0 0.00 0.00 0.00 93 1013.0
20200228110516 13 0.0 1.6 0.00 0.00 0.00 93 1013.1
20200228105516 13 0.0 0.0 0.00 0.00 0.00 92 1013.0
20200228104518 13 0.0 0.0 0.00 0.00 0.00 92 1013.1
20200228103515 13 0.0 0.0 0.00 0.00 0.00 93 1013.2
20200228102516 13 0.0 1.6 0.00 0.00 0.00 93 1013.2
20200228101515 13 0.0 0.0 0.00 0.00 0.00 93 1013.3
20200228100515 13 0.0 0.0 0.00 0.00 0.00 92 1013.2
20200228095515 13 0.0 0.0 0.00 0.00 0.00 92 1013.4
20200228094515 13 0.0 0.0 0.00 0.00 0.00 92 1013.4
20200228093515 13 0.0 0.0 0.00 0.00 0.00 91 1013.4
20200228092516 13 0.0 0.0 0.00 0.00 0.00 92 1013.5
20200228090517 13 0.0 0.0 0.00 0.00 0.00 91 1013.7
20200228085515 13 0.0 0.0 0.00 0.00 0.00 92 1013.8
20200228084515 13 0.0 0.0 0.00 0.00 0.00 91 1014.0
20200228083516 13 0.0 0.0 0.00 0.00 0.00 92 1014.1
20200228082515 13 0.0 0.0 0.00 0.00 0.00 92 1014.1
20200228081517 13 0.0 0.0 0.00 0.00 0.00 91 1014.2
20200228080517 13 0.0 3.2 0.00 0.00 0.00 91 1014.3
20200228075517 13 0.0 0.0 0.00 0.00 0.00 90 1014.3